Virtual Futura



 METAR AND TAF INFORMATION
METAR FOR LIPE
ADDS - METARS form results

(1200 UTC 18 October 2019)
Data provider http://aviationweather.gov/metar/data/
 
METAR text: LIPE 181150Z 02004KT 340V080 CAVOK 20/13 Q1017
Conditions at: LIPE (BOLOGNA/BORGO (A, IT) observed 1150 UTC 18 October 2019
Temperature: 20.0°C (68°F)
Dewpoint: 13.0°C (55°F) [RH = 64%]
Pressure (altimeter): 30.03 inches Hg (1017.0 mb)
Winds: from the NNE (20 degrees) at 5 MPH (4 knots; 2.1 m/s)
Visibility: 6 or more miles (10+ km)
Ceiling: ceiling and visibility are OK
Clouds: unknown
Weather: no significant weather observed at this time

METAR text: LIPE 181120Z VRB03KT CAVOK 20/13 Q1018
Conditions at: LIPE (BOLOGNA/BORGO (A, IT) observed 1120 UTC 18 October 2019
Temperature: 20.0°C (68°F)
Dewpoint: 13.0°C (55°F) [RH = 64%]
Pressure (altimeter): 30.06 inches Hg (1018.0 mb)
Winds: variable direction winds at 3 MPH (3 knots; 1.5 m/s)
Visibility: 6 or more miles (10+ km)
Ceiling: ceiling and visibility are OK
Clouds: unknown
Weather: no significant weather observed at this time

Forecast for: LIPE (BOLOGNA/BORGO (A, IT)
Text: TAF LIPE 181100Z 1812/1912 VRB05KT 9999 FEW050
Forecast period: 1200 UTC 18 October 2019 to 1200 UTC 19 October 2019
Forecast type: FROM: standard forecast or significant change
Winds: variable direction winds at 6 MPH (5 knots; 2.6 m/s)
Visibility: 6 or more miles 10+ km)
Ceiling: at least 12,000 feet AGL
Clouds: few clouds at 5000 feet AGL
Weather: no significant weather forecast for this period
Text: TEMPO 1900/1906 3000 BR
Forecast period: 0000 to 0600 UTC 19 October 2019
Forecast type: TEMPORARY: The following changes expected for less than half the time period
Visibility: 1.86 miles (2.99 km)
Ceiling: unknown
Clouds: missing
Weather: BR  (mist)

 AIRPORT MAP

 RUNWAY INFORMATION
Runway 12 Runway length 9186 ft Runway width 150 ft
Runway elevation 120 ft Runway displaced threshold 1007 ft Runway heading 117
Runway 30 Runway length 9186 ft Runway width 150 ft
Runway elevation 120 ft Runway displaced threshold 1188 ft Runway heading 297

 AIRPORT FREQUENCIES
Type APP Name APP Frequency 120.1 MHZ
Type ATIS Name ATIS Frequency 134.875 MHZ
Type GND Name GND Frequency 129.925 MHZ
Type TWR Name TWR Frequency 120.8 MHZ

 AIRPORT NEAR NAVIGATION AIDS
Type VOR-DME Name Bologna Frequency 112200 KHZ
Type NDB Name Bologna Frequency 413 KHZ

Poltica de Cookies

Esta web utiliza cookies para obtener datos estadsticos de la navegacin de sus usuarios. Si continas navegando consideramos que aceptas su uso. Ms informacin X Cerrar